Time;durP1;ratioP1;P1;durP2;ratioP2;P2;SDS_P1;SDS_P2;PMS_P1;PMS_P2;Temp;Humidity;BMP_temperature;BMP_pressure;BME280_temperature;BME280_humidity;BME280_pressure;Samples;Min_cycle;Max_cycle;Signal;HPM_P1;HPM_P2
2021/09/18 05:01:45;;;;;;;15.85;8.80;;;;;;;18.88;97.82;94459.69;5468591;23;20129;-88
2021/09/18 05:04:11;;;;;;;19.75;9.90;;;;;;;17.85;100.00;94502.31;4953958;28;20039;-89
2021/09/18 05:06:36;;;;;;;15.25;9.90;;;;;;;17.55;100.00;94538.28;4955293;28;20038;-87
2021/09/18 05:09:02;;;;;;;26.42;12.10;;;;;;;17.45;100.00;94561.56;4969592;28;20469;-85
2021/09/18 05:11:27;;;;;;;19.40;10.70;;;;;;;17.25;100.00;94577.50;4971509;28;20034;-89
2021/09/18 05:13:53;;;;;;;22.63;12.30;;;;;;;17.18;100.00;94605.59;4969470;28;20035;-86
2021/09/18 05:16:18;;;;;;;61.75;13.32;;;;;;;17.23;100.00;94638.97;4936929;28;20463;-81
2021/09/18 05:18:44;;;;;;;22.85;12.25;;;;;;;17.10;100.00;94657.44;4970946;28;20034;-81
2021/09/18 05:21:09;;;;;;;22.02;12.55;;;;;;;16.97;100.00;94676.69;4969948;28;20085;-84
2021/09/18 05:23:34;;;;;;;26.52;15.68;;;;;;;16.82;100.00;94655.31;4971090;28;20035;-80
2021/09/18 05:26:00;;;;;;;45.85;24.58;;;;;;;16.32;100.00;94599.59;4969065;28;20023;-79
2021/09/18 05:28:25;;;;;;;31.02;17.70;;;;;;;16.64;100.00;94648.22;4970562;28;20566;-80
2021/09/18 05:30:51;;;;;;;190.80;21.23;;;;;;;16.40;100.00;94622.06;4968942;28;20023;-81
2021/09/18 05:33:16;;;;;;;1172.93;64.88;;;;;;;16.19;100.00;94608.38;4968903;28;20089;-85
2021/09/18 05:35:42;;;;;;;57.47;20.80;;;;;;;16.35;100.00;94607.03;4970353;28;20038;-85
2021/09/18 05:38:07;;;;;;;27.48;17.88;;;;;;;16.42;100.00;94633.91;4969382;28;20026;-87
2021/09/18 05:40:33;;;;;;;31.20;19.63;;;;;;;16.69;100.00;94666.69;4953137;28;20031;-83
2021/09/18 05:42:58;;;;;;;18.05;14.05;;;;;;;16.96;100.00;94667.22;4936071;29;20028;-83
2021/09/18 05:45:24;;;;;;;59.40;17.90;;;;;;;16.86;100.00;94646.00;4932523;29;20070;-84
2021/09/18 05:47:49;;;;;;;18.95;14.68;;;;;;;16.81;100.00;94644.03;4930744;29;20028;-85
2021/09/18 05:50:15;;;;;;;19.40;13.40;;;;;;;17.12;100.00;94644.91;4933168;28;20242;-85
2021/09/18 05:52:40;;;;;;;21.48;13.70;;;;;;;17.50;100.00;94637.63;4931996;29;20024;-87
2021/09/18 05:55:06;;;;;;;24.50;13.20;;;;;;;17.83;100.00;94619.69;4950964;29;20023;-87
2021/09/18 05:57:32;;;;;;;24.58;13.48;;;;;;;18.73;100.00;94574.88;4937121;29;20137;-87
2021/09/18 05:59:57;;;;;;;15.05;9.55;;;;;;;19.82;99.61;94508.94;4950122;29;20441;-89
2021/09/18 06:02:23;;;;;;;12.43;8.40;;;;;;;20.69;93.36;94487.34;4950779;29;20059;-90
2021/09/18 06:04:49;;;;;;;15.65;9.30;;;;;;;20.23;93.65;94491.16;4948531;29;20094;-90
2021/09/18 06:07:15;;;;;;;15.15;8.73;;;;;;;19.40;97.43;94495.38;4950680;29;20170;-88
2021/09/18 06:09:40;;;;;;;15.15;9.45;;;;;;;18.92;98.87;94484.47;4949196;29;20035;-88
2021/09/18 06:12:05;;;;;;;13.60;8.52;;;;;;;18.84;100.00;94497.97;4950176;29;20042;-89
2021/09/18 06:14:31;;;;;;;20.25;10.07;;;;;;;20.72;93.47;94469.22;4950160;29;20027;-89
2021/09/18 06:16:56;;;;;;;15.13;8.50;;;;;;;24.63;76.39;94438.06;4948091;29;20027;-86
2021/09/18 06:19:22;;;;;;;14.65;8.10;;;;;;;24.23;75.07;94442.66;4949473;29;20023;-89
2021/09/18 06:21:47;;;;;;;16.05;9.15;;;;;;;25.94;67.81;94444.50;4948890;29;20512;-88
2021/09/18 06:24:14;;;;;;;22.45;7.22;;;;;;;24.42;70.62;94436.53;4949520;29;20102;-88
2021/09/18 06:26:40;;;;;;;16.58;7.57;;;;;;;24.55;70.18;94445.78;4947859;28;20574;-88
2021/09/18 06:29:05;;;;;;;14.52;7.43;;;;;;;22.87;75.91;94448.56;4950141;29;20098;-88
2021/09/18 06:31:31;;;;;;;15.93;7.85;;;;;;;21.79;80.29;94447.38;4931856;29;20062;-88
2021/09/18 06:33:56;;;;;;;15.43;7.32;;;;;;;20.82;84.91;94448.28;4942451;29;20091;-89
2021/09/18 06:36:22;;;;;;;14.18;8.25;;;;;;;20.69;88.01;94456.53;4931176;29;20024;-90
2021/09/18 06:38:47;;;;;;;18.23;7.97;;;;;;;20.39;89.10;94454.31;4929283;29;20425;-89
2021/09/18 06:41:13;;;;;;;18.77;9.70;;;;;;;20.12;92.06;94432.38;4930641;29;20050;-88
2021/09/18 06:43:38;;;;;;;19.20;8.20;;;;;;;20.14;93.11;94442.63;4928503;29;20031;-89
2021/09/18 06:46:04;;;;;;;14.48;8.65;;;;;;;20.19;93.56;94448.78;4929949;29;20446;-84
2021/09/18 06:48:29;;;;;;;21.17;10.18;;;;;;;19.81;92.43;94454.78;4928725;29;20063;-87
2021/09/18 06:50:55;;;;;;;16.50;10.13;;;;;;;20.49;91.77;94449.19;4930939;29;20019;-89
2021/09/18 06:53:20;;;;;;;16.85;8.00;;;;;;;26.00;68.40;94438.06;4931062;29;20102;-89
2021/09/18 06:55:46;;;;;;;13.52;7.20;;;;;;;24.86;71.78;94454.41;4929932;29;20067;-89
2021/09/18 06:58:11;;;;;;;18.38;7.68;;;;;;;30.60;53.10;94457.59;4931031;29;20027;-91
2021/09/18 07:00:36;;;;;;;12.65;6.32;;;;;;;31.87;49.91;94452.06;4929491;29;20524;-85
2021/09/18 07:03:02;;;;;;;9.77;6.43;;;;;;;33.49;43.71;94431.16;4933538;29;20050;-86
2021/09/18 07:05:27;;;;;;;14.98;7.57;;;;;;;30.91;48.94;94465.59;4948234;29;20102;-91
2021/09/18 07:07:53;;;;;;;13.40;6.15;;;;;;;32.95;44.92;94465.09;4950223;29;20748;-91
2021/09/18 07:10:18;;;;;;;16.27;7.68;;;;;;;25.38;65.53;94475.91;4949054;29;20031;-90
2021/09/18 07:12:44;;;;;;;13.65;7.93;;;;;;;24.19;71.90;94454.84;4948049;29;20028;-88
2021/09/18 07:15:10;;;;;;;12.95;8.10;;;;;;;23.14;77.40;94459.75;4950091;29;20099;-89
2021/09/18 07:17:37;;;;;;;18.63;7.82;;;;;;;23.12;78.64;94461.84;4931571;29;20485;-89
2021/09/18 07:20:04;;;;;;;14.38;8.38;;;;;;;23.45;78.37;94477.31;4950536;29;20122;-89
2021/09/18 07:22:29;;;;;;;13.77;7.22;;;;;;;23.51;76.54;94486.84;4948260;29;20027;-90
2021/09/18 07:24:54;;;;;;;20.63;8.85;;;;;;;21.91;82.59;94482.31;4950086;29;20031;-89
2021/09/18 07:27:20;;;;;;;16.20;9.40;;;;;;;21.42;87.13;94492.94;4948157;29;20042;-85
2021/09/18 07:29:46;;;;;;;14.18;8.68;;;;;;;21.18;85.65;94481.09;4950125;29;20099;-89
2021/09/18 07:32:11;;;;;;;19.35;10.65;;;;;;;21.00;88.42;94492.72;4949485;29;20024;-86
2021/09/18 07:34:37;;;;;;;12.50;7.28;;;;;;;20.97;86.45;94479.25;4949236;29;20031;-91
2021/09/18 07:37:03;;;;;;;17.52;8.23;;;;;;;20.81;87.50;94480.09;4950255;28;20497;-92
2021/09/18 07:39:29;;;;;;;16.10;9.23;;;;;;;20.67;88.16;94479.69;4951763;29;20023;-91
2021/09/18 07:41:55;;;;;;;15.35;8.88;;;;;;;20.71;88.30;94487.91;4953891;29;20090;-91
2021/09/18 07:44:20;;;;;;;13.77;9.73;;;;;;;21.09;87.54;94494.94;4951619;29;20035;-86
2021/09/18 07:46:46;;;;;;;21.15;8.60;;;;;;;22.64;82.74;94481.47;4953615;29;20515;-89
2021/09/18 07:49:11;;;;;;;16.67;9.00;;;;;;;23.01;81.90;94486.69;4951823;29;20409;-85
2021/09/18 07:51:36;;;;;;;21.77;9.95;;;;;;;22.88;82.28;94471.31;4933940;29;20034;-88
2021/09/18 07:54:02;;;;;;;18.35;8.70;;;;;;;24.14;77.12;94474.19;4933801;29;20032;-89
2021/09/18 07:56:27;;;;;;;16.95;8.63;;;;;;;24.38;74.78;94469.91;4915224;29;20052;-90
2021/09/18 07:58:54;;;;;;;12.07;7.03;;;;;;;24.38;70.64;94467.25;4934041;29;20031;-87
2021/09/18 08:01:20;;;;;;;14.75;7.35;;;;;;;24.33;72.65;94477.88;4928028;29;20095;-84
2021/09/18 08:03:46;;;;;;;55.47;9.50;;;;;;;23.77;76.05;94473.63;4932542;29;20577;-85
2021/09/18 08:06:11;;;;;;;15.07;8.23;;;;;;;23.34;76.72;94467.72;4931647;29;20035;-85
2021/09/18 08:08:37;;;;;;;14.63;9.45;;;;;;;22.61;79.48;94471.41;4932760;29;20035;-86
2021/09/18 08:11:02;;;;;;;55.25;10.02;;;;;;;21.88;81.59;94477.53;4931910;29;20051;-86
2021/09/18 08:13:28;;;;;;;17.25;9.98;;;;;;;21.49;85.54;94490.91;4951239;29;20035;-88
2021/09/18 08:15:53;;;;;;;11.27;10.15;;;;;;;21.15;87.33;94501.88;4952249;29;20027;-89
2021/09/18 08:18:19;;;;;;;17.05;10.25;;;;;;;20.93;89.09;94505.28;4951629;29;20031;-89
2021/09/18 08:20:44;;;;;;;18.58;11.20;;;;;;;20.88;87.40;94493.88;4952865;29;20090;-87
2021/09/18 08:23:10;;;;;;;17.13;11.93;;;;;;;20.76;87.45;94503.75;4950665;29;20027;-83
2021/09/18 08:25:35;;;;;;;18.35;12.35;;;;;;;20.50;88.16;94489.47;4952786;29;20082;-91
2021/09/18 08:28:01;;;;;;;21.60;12.80;;;;;;;20.67;88.73;94502.59;4951306;29;20456;-90
2021/09/18 08:30:27;;;;;;;17.30;12.70;;;;;;;20.52;89.38;94491.88;4952285;29;20106;-88
2021/09/18 08:32:52;;;;;;;22.80;15.10;;;;;;;20.23;91.98;94507.72;4952407;29;20023;-90
2021/09/18 08:35:18;;;;;;;17.23;12.85;;;;;;;20.15;92.49;94502.91;4934685;29;20027;-89
2021/09/18 08:37:43;;;;;;;23.42;13.95;;;;;;;20.20;93.28;94502.94;4951620;29;20023;-90
2021/09/18 08:40:09;;;;;;;19.92;14.70;;;;;;;20.11;93.71;94491.25;4951102;29;20493;-89
2021/09/18 08:42:38;;;;;;;24.48;13.43;;;;;;;20.02;95.14;94497.97;4952264;29;20404;-90
2021/09/18 08:45:06;;;;;;;24.07;14.63;;;;;;;20.18;94.77;94505.03;4949803;29;20030;-91
2021/09/18 08:47:31;;;;;;;24.80;12.80;;;;;;;20.31;95.00;94499.47;4952230;29;20299;-88
2021/09/18 08:49:57;;;;;;;21.55;13.65;;;;;;;20.61;94.42;94490.41;4947844;28;20080;-90
2021/09/18 08:52:22;;;;;;;21.95;13.30;;;;;;;20.58;93.42;94498.78;4951291;29;20027;-89
2021/09/18 08:54:48;;;;;;;22.08;13.93;;;;;;;20.68;91.38;94486.53;4951598;29;20027;-89
2021/09/18 08:57:13;;;;;;;19.45;12.60;;;;;;;20.79;91.90;94495.38;4950831;29;20028;-89
2021/09/18 08:59:39;;;;;;;22.70;15.20;;;;;;;20.93;93.32;94473.66;4951648;29;20055;-88
2021/09/18 09:02:12;;;;;;;20.50;14.32;;;;;;;22.05;89.10;94491.41;4949426;29;20087;-89
2021/09/18 09:04:37;;;;;;;16.20;12.02;;;;;;;22.60;86.69;94477.75;4952078;29;20493;-89
2021/09/18 09:07:03;;;;;;;18.90;12.57;;;;;;;23.05;81.25;94475.31;4949762;29;20117;-90
2021/09/18 09:10:05;;;;;;;19.65;12.15;;;;;;;23.86;80.73;94480.78;4951622;29;20412;-90
2021/09/18 09:12:36;;;;;;;13.00;7.82;;;;;;;24.07;77.10;94478.94;4950685;29;20041;-88
2021/09/18 09:15:20;;;;;;;10.82;7.90;;;;;;;24.08;75.50;94454.06;4932653;29;20023;-89
2021/09/18 09:17:51;;;;;;;11.77;7.97;;;;;;;23.87;76.73;94473.63;4951461;29;20122;-88
2021/09/18 09:20:27;;;;;;;9.73;7.68;;;;;;;23.76;76.26;94480.75;4940130;29;20043;-85
2021/09/18 09:22:52;;;;;;;10.35;6.45;;;;;;;24.10;74.06;94488.97;4946012;29;20038;-83
2021/09/18 09:25:34;;;;;;;258.38;16.42;;;;;;;23.79;74.93;94492.69;4947184;29;20114;-82
2021/09/18 09:28:25;;;;;;;11.60;6.93;;;;;;;23.79;74.91;94490.81;4929989;29;20924;-89
2021/09/18 09:30:51;;;;;;;136.80;10.52;;;;;;;23.92;73.66;94490.28;4931429;29;20027;-83
2021/09/18 09:33:16;;;;;;;67.55;8.57;;;;;;;23.97;73.37;94492.97;4945484;29;20663;-87
2021/09/18 09:35:42;;;;;;;77.95;8.38;;;;;;;23.97;73.83;94494.81;4930484;29;20086;-79
2021/09/18 09:38:07;;;;;;;11.38;8.60;;;;;;;22.88;75.57;94476.59;4930818;29;20114;-87
2021/09/18 09:40:40;;;;;;;50.03;11.50;;;;;;;22.73;77.56;94485.25;4912939;29;20035;-87
2021/09/18 09:43:07;;;;;;;11.40;10.18;;;;;;;23.13;75.94;94478.50;4932168;29;20076;-90
2021/09/18 09:45:33;;;;;;;10.07;9.18;;;;;;;22.90;76.55;94483.19;4930162;29;20058;-82
2021/09/18 09:48:01;;;;;;;10.45;9.40;;;;;;;22.69;77.52;94484.16;4931721;29;20099;-89
2021/09/18 09:50:27;;;;;;;11.10;10.07;;;;;;;22.23;78.60;94477.81;4930262;29;20059;-88
2021/09/18 09:52:55;;;;;;;10.57;9.27;;;;;;;21.68;80.50;94479.97;4931518;29;20019;-88
2021/09/18 09:55:20;;;;;;;25.30;9.23;;;;;;;21.47;79.76;94484.28;4931333;29;20095;-83
2021/09/18 09:57:57;;;;;;;10.00;9.20;;;;;;;20.87;83.57;94492.31;4929211;29;20023;-83
2021/09/18 10:00:22;;;;;;;10.52;9.38;;;;;;;20.92;84.98;94495.00;4915528;29;20035;-91
2021/09/18 10:02:48;;;;;;;11.82;10.38;;;;;;;20.86;87.21;94485.44;4939808;29;20113;-86
2021/09/18 10:05:14;;;;;;;12.23;7.93;;;;;;;21.04;85.90;94488.56;4950567;29;20034;-90
2021/09/18 10:07:40;;;;;;;11.95;7.53;;;;;;;21.12;85.88;94494.47;4948686;29;20496;-90
2021/09/18 10:10:07;;;;;;;53.28;8.32;;;;;;;20.93;84.43;94472.91;4949274;29;20031;-84
2021/09/18 10:12:33;;;;;;;5.15;4.60;;;;;;;21.45;82.61;94496.91;4950130;29;20122;-85
2021/09/18 10:14:59;;;;;;;5.88;5.25;;;;;;;21.70;81.62;94486.63;4941801;29;20100;-86
2021/09/18 10:17:24;;;;;;;6.38;4.80;;;;;;;21.76;80.54;94492.72;4909043;29;20031;-90
2021/09/18 10:25:12;;;;;;;6.43;5.30;;;;;;;21.17;82.70;94507.69;4947721;29;20114;-84
2021/09/18 10:27:37;;;;;;;7.13;6.45;;;;;;;21.16;83.64;94511.38;4933663;29;20031;-85
2021/09/18 10:30:03;;;;;;;48.15;8.45;;;;;;;21.20;84.14;94517.72;4932387;29;20098;-85
2021/09/18 10:32:29;;;;;;;33.58;7.65;;;;;;;20.92;84.20;94530.03;4948526;29;20035;-89
2021/09/18 10:35:11;;;;;;;7.63;6.93;;;;;;;21.14;84.28;94532.69;4932333;29;20031;-85
2021/09/18 10:37:38;;;;;;;8.32;7.63;;;;;;;21.36;84.20;94536.09;4948800;29;20023;-88
2021/09/18 10:40:10;;;;;;;9.40;8.63;;;;;;;20.93;85.22;94544.00;4950077;29;20035;-87
2021/09/18 10:42:44;;;;;;;79.00;11.82;;;;;;;20.42;88.28;94553.81;4949277;29;20118;-89
2021/09/18 10:45:10;;;;;;;11.55;10.65;;;;;;;20.09;88.82;94568.81;4947934;29;20045;-82
2021/09/18 10:47:39;;;;;;;70.07;14.15;;;;;;;19.74;90.19;94598.72;4949759;29;20485;-82
2021/09/18 10:50:21;;;;;;;43.70;13.07;;;;;;;19.28;91.17;94606.72;4947269;29;20039;-86
2021/09/18 10:52:57;;;;;;;109.25;17.10;;;;;;;18.94;92.86;94603.16;4949270;29;20117;-77
2021/09/18 10:55:23;;;;;;;491.55;29.88;;;;;;;18.74;93.13;94623.72;4948059;29;20047;-91
2021/09/18 10:57:48;;;;;;;43.53;14.35;;;;;;;18.58;95.03;94614.72;4948716;29;20036;-86
2021/09/18 11:00:20;;;;;;;57.72;14.80;;;;;;;18.42;95.66;94621.41;4947629;29;20058;-82
2021/09/18 11:02:52;;;;;;;279.42;24.75;;;;;;;18.06;97.01;94612.91;4947515;29;20055;-88
2021/09/18 11:05:20;;;;;;;213.65;19.55;;;;;;;18.01;97.29;94615.41;4932413;29;20122;-90
2021/09/18 11:07:50;;;;;;;13.45;12.00;;;;;;;17.77;98.77;94625.00;4947709;29;20063;-83
2021/09/18 11:10:19;;;;;;;12.52;11.23;;;;;;;17.77;98.33;94619.75;4948956;29;20038;-86
2021/09/18 11:13:11;;;;;;;114.73;12.80;;;;;;;17.53;99.32;94634.56;4949686;28;20363;-88
2021/09/18 11:15:48;;;;;;;7.43;6.82;;;;;;;17.28;99.28;94624.19;4946670;29;20118;-91
2021/09/18 11:18:36;;;;;;;9.73;6.40;;;;;;;17.30;100.00;94619.56;4950588;29;20050;-91
2021/09/18 11:21:06;;;;;;;9.80;6.18;;;;;;;17.23;99.88;94618.03;4950929;29;20081;-87
2021/09/18 11:23:56;;;;;;;8.18;6.45;;;;;;;17.15;100.00;94636.63;4953834;29;20110;-90
2021/09/18 11:26:44;;;;;;;7.57;5.43;;;;;;;17.13;100.00;94625.59;4953543;29;20031;-87
2021/09/18 11:29:09;;;;;;;9.40;5.97;;;;;;;17.02;100.00;94613.22;4929911;29;20035;-83
2021/09/18 11:31:38;;;;;;;9.68;6.55;;;;;;;17.08;100.00;94605.28;4933145;29;20035;-83
2021/09/18 11:34:04;;;;;;;27.17;8.10;;;;;;;16.61;100.00;94604.19;4930803;29;20082;-82
2021/09/18 11:36:29;;;;;;;45.90;9.02;;;;;;;16.29;100.00;94618.34;4932289;29;20027;-81
2021/09/18 11:38:55;;;;;;;8.95;7.95;;;;;;;16.45;100.00;94628.25;4932241;29;20027;-83
2021/09/18 11:41:20;;;;;;;9.63;6.88;;;;;;;16.57;100.00;94626.56;4931566;29;20035;-85
2021/09/18 11:43:46;;;;;;;7.20;6.50;;;;;;;16.42;100.00;94612.19;4932250;29;20031;-87
2021/09/18 11:46:22;;;;;;;9.73;7.57;;;;;;;16.21;100.00;94616.78;4914467;29;20043;-87
2021/09/18 11:48:58;;;;;;;41.80;9.15;;;;;;;16.23;100.00;94620.00;4933593;29;20024;-87
2021/09/18 11:51:23;;;;;;;10.00;8.43;;;;;;;16.31;100.00;94635.41;4931665;29;20498;-88
2021/09/18 11:53:58;;;;;;;7.53;6.78;;;;;;;16.61;100.00;94640.81;4933436;29;20091;-86
2021/09/18 11:56:24;;;;;;;8.43;7.60;;;;;;;16.58;100.00;94628.16;4932268;29;20087;-86
2021/09/18 11:58:49;;;;;;;11.60;7.75;;;;;;;16.94;100.00;94637.06;4930790;29;20056;-86
2021/09/18 12:01:14;;;;;;;6.63;6.03;;;;;;;17.29;100.00;94623.19;4933089;29;20046;-88
2021/09/18 12:03:43;;;;;;;7.38;6.15;;;;;;;17.74;100.00;94623.63;4899883;29;20466;-90
2021/09/18 12:06:19;;;;;;;7.73;6.90;;;;;;;17.62;99.66;94606.28;4934240;29;20036;-91
2021/09/18 12:08:49;;;;;;;9.38;5.40;;;;;;;18.31;100.00;94608.25;4933200;29;20027;-92
2021/09/18 12:11:17;;;;;;;23.52;6.75;;;;;;;18.61;99.10;94611.63;4933811;29;20027;-89
2021/09/18 12:13:45;;;;;;;194.00;12.30;;;;;;;18.65;100.00;94604.09;4933073;29;20556;-88
2021/09/18 12:16:11;;;;;;;7.90;4.50;;;;;;;18.60;98.75;94609.22;4917112;29;20452;-84
2021/09/18 12:18:38;;;;;;;4.10;3.70;;;;;;;18.28;100.00;94608.72;4934312;29;20106;-91
2021/09/18 12:21:05;;;;;;;5.88;5.47;;;;;;;18.22;99.41;94614.88;4931570;29;20039;-87
2021/09/18 12:23:31;;;;;;;6.07;4.97;;;;;;;17.77;100.00;94586.50;4932669;29;20056;-90
2021/09/18 12:25:59;;;;;;;6.18;5.72;;;;;;;17.72;100.00;94615.19;4930791;29;20031;-89
2021/09/18 12:28:26;;;;;;;7.03;6.35;;;;;;;17.81;100.00;94626.97;4932616;29;20066;-85
2021/09/18 12:30:51;;;;;;;7.22;6.43;;;;;;;17.98;99.69;94614.00;4931292;29;20516;-84
2021/09/18 12:33:18;;;;;;;8.20;7.38;;;;;;;18.15;99.01;94622.03;4931316;29;20038;-83
2021/09/18 12:35:47;;;;;;;7.82;7.13;;;;;;;17.93;99.38;94632.22;4932122;29;20034;-84
2021/09/18 12:38:14;;;;;;;7.60;7.00;;;;;;;17.86;98.99;94623.66;4930712;29;20035;-87
2021/09/18 12:40:46;;;;;;;8.48;7.85;;;;;;;17.83;98.83;94624.91;4932950;29;20475;-86
2021/09/18 12:43:16;;;;;;;8.75;7.93;;;;;;;17.77;99.40;94631.06;4931040;29;20036;-85
2021/09/18 12:45:42;;;;;;;9.27;8.45;;;;;;;17.76;99.25;94633.88;4932400;29;20042;-86
2021/09/18 12:48:24;;;;;;;10.02;9.32;;;;;;;17.75;99.63;94629.69;4947315;29;20110;-87
2021/09/18 12:50:52;;;;;;;14.27;12.98;;;;;;;17.47;100.00;94637.25;4931523;29;20397;-85
2021/09/18 12:53:25;;;;;;;12.65;11.65;;;;;;;17.45;100.00;94636.69;4945557;29;20039;-87
2021/09/18 12:56:15;;;;;;;11.50;10.57;;;;;;;17.56;100.00;94638.59;4950637;29;20453;-91
2021/09/18 12:58:45;;;;;;;11.43;10.52;;;;;;;17.52;100.00;94632.16;4941831;28;20034;-90
2021/09/18 13:01:12;;;;;;;95.88;15.77;;;;;;;17.45;100.00;94636.69;4951065;29;20457;-90
2021/09/18 13:03:37;;;;;;;14.10;12.93;;;;;;;17.47;100.00;94635.44;4933746;29;20034;-91
2021/09/18 13:06:07;;;;;;;14.27;13.20;;;;;;;17.45;100.00;94618.34;4951428;29;20019;-84
2021/09/18 13:08:44;;;;;;;14.65;13.35;;;;;;;17.60;99.68;94611.72;4949288;29;20077;-87
2021/09/18 13:11:21;;;;;;;14.80;13.50;;;;;;;17.60;99.63;94608.31;4951463;29;20046;-85
2021/09/18 13:13:47;;;;;;;13.02;12.13;;;;;;;17.48;98.96;94591.72;4949641;28;20481;-89
2021/09/18 13:16:13;;;;;;;13.65;12.45;;;;;;;17.54;98.14;94606.53;4946184;29;20506;-87
2021/09/18 13:18:39;;;;;;;13.88;12.77;;;;;;;17.60;98.28;94621.41;4936318;29;20035;-77
2021/09/18 13:21:04;;;;;;;302.55;24.73;;;;;;;17.76;96.96;94598.00;4950317;29;20042;-89
2021/09/18 13:23:29;;;;;;;24.80;12.70;;;;;;;17.97;96.75;94601.94;4918670;29;20031;-89
2021/09/18 13:25:55;;;;;;;10.52;9.82;;;;;;;18.29;94.04;94584.91;4949022;29;20528;-88
2021/09/18 13:28:24;;;;;;;9.25;8.63;;;;;;;19.21;91.50;94588.47;4950812;29;20043;-83
2021/09/18 13:30:50;;;;;;;58.28;11.20;;;;;;;19.30;90.31;94575.75;4932358;29;20027;-86
2021/09/18 13:33:15;;;;;;;44.15;9.32;;;;;;;19.06;89.50;94579.50;4950835;29;20031;-94
2021/09/18 13:35:41;;;;;;;9.45;8.63;;;;;;;18.71;91.77;94582.19;4950324;28;20031;-84
2021/09/18 13:38:06;;;;;;;28.23;10.65;;;;;;;18.44;91.69;94582.63;4950936;29;20028;-89
2021/09/18 13:40:32;;;;;;;10.23;9.43;;;;;;;18.39;91.80;94593.00;4952485;29;20031;-86
2021/09/18 13:42:57;;;;;;;102.05;14.98;;;;;;;18.11;93.32;94594.69;4933163;29;20461;-95
2021/09/18 13:45:22;;;;;;;12.63;11.63;;;;;;;17.88;92.65;94598.81;4934260;29;20024;-85
2021/09/18 13:47:48;;;;;;;11.90;11.00;;;;;;;17.86;93.01;94600.88;4949727;29;20469;-90
2021/09/18 13:50:13;;;;;;;12.13;11.32;;;;;;;17.71;93.61;94594.47;4952476;29;20135;-94
2021/09/18 13:52:39;;;;;;;12.27;11.48;;;;;;;17.55;94.83;94608.16;4951509;29;20034;-89
2021/09/18 13:55:05;;;;;;;14.55;13.45;;;;;;;17.33;95.22;94608.63;4951512;29;20015;-86
2021/09/18 13:57:30;;;;;;;12.13;11.05;;;;;;;17.33;95.31;94611.25;4949616;29;20413;-84
2021/09/18 13:59:56;;;;;;;13.65;12.57;;;;;;;17.32;95.38;94596.56;4951403;29;20035;-93
2021/09/18 14:02:21;;;;;;;13.85;12.85;;;;;;;17.20;95.07;94595.72;4950661;29;20501;-83
2021/09/18 14:04:48;;;;;;;33.20;13.85;;;;;;;17.21;94.18;94586.81;4916246;29;20058;-86
2021/09/18 14:07:13;;;;;;;14.77;13.68;;;;;;;17.27;94.31;94591.16;4951207;29;20043;-91
2021/09/18 14:09:39;;;;;;;14.15;13.05;;;;;;;17.25;95.06;94592.41;4948964;29;20106;-83
2021/09/18 14:12:04;;;;;;;15.38;13.80;;;;;;;17.33;94.67;94597.38;4950380;29;20109;-86
2021/09/18 14:14:30;;;;;;;16.77;15.50;;;;;;;17.28;94.37;94592.78;4949158;29;20059;-92
2021/09/18 14:16:57;;;;;;;98.65;18.27;;;;;;;17.43;93.77;94583.75;4947934;29;20172;-93
2021/09/18 14:19:23;;;;;;;25.40;17.20;;;;;;;17.48;92.80;94583.88;4949455;29;20031;-87
2021/09/18 14:21:49;;;;;;;552.47;38.72;;;;;;;17.52;92.54;94579.78;4949053;29;20042;-82
2021/09/18 14:24:14;;;;;;;16.00;14.90;;;;;;;17.48;91.25;94583.88;4949631;29;20023;-87
2021/09/18 14:26:40;;;;;;;16.95;15.65;;;;;;;17.53;91.87;94586.63;4930887;29;20027;-83
2021/09/18 14:29:05;;;;;;;16.73;15.43;;;;;;;17.49;92.39;94593.34;4950741;29;20039;-86
2021/09/18 14:31:31;;;;;;;131.55;20.08;;;;;;;17.42;92.50;94593.41;4948940;29;20085;-87
2021/09/18 14:33:56;;;;;;;592.72;39.65;;;;;;;17.31;92.80;94602.81;4951088;29;20366;-88
2021/09/18 14:36:22;;;;;;;21.42;16.98;;;;;;;17.31;92.25;94597.56;4932281;29;20031;-88
2021/09/18 14:38:48;;;;;;;17.88;16.38;;;;;;;17.33;92.58;94602.59;4950645;29;20021;-81
2021/09/18 14:41:13;;;;;;;21.17;17.20;;;;;;;17.29;92.98;94607.47;4950185;29;20031;-91
2021/09/18 14:43:39;;;;;;;39.90;18.58;;;;;;;17.36;93.06;94604.78;4917448;29;20060;-88
2021/09/18 14:46:04;;;;;;;23.88;16.30;;;;;;;17.42;92.88;94596.03;4932923;29;20031;-92
2021/09/18 14:48:30;;;;;;;59.05;18.27;;;;;;;17.12;92.37;94590.75;4948483;29;20082;-82
2021/09/18 14:50:56;;;;;;;18.67;17.27;;;;;;;17.02;92.36;94569.53;4933158;29;20030;-93
2021/09/18 14:53:22;;;;;;;18.00;16.70;;;;;;;17.08;92.99;94597.44;4948442;29;20078;-91
2021/09/18 14:55:48;;;;;;;18.00;16.48;;;;;;;16.99;93.37;94590.91;4947040;28;20082;-89
2021/09/18 14:58:13;;;;;;;19.88;18.20;;;;;;;17.03;92.86;94599.13;4937933;29;20032;-83
2021/09/18 15:00:39;;;;;;;19.85;18.25;;;;;;;17.02;92.75;94600.13;4929892;29;20086;-86
2021/09/18 15:03:04;;;;;;;65.07;21.10;;;;;;;16.88;94.37;94591.66;4929760;29;20059;-89
2021/09/18 15:05:29;;;;;;;20.23;18.52;;;;;;;16.92;93.76;94598.03;4929409;29;20541;-83
2021/09/18 15:07:55;;;;;;;19.65;18.15;;;;;;;16.92;93.95;94605.09;4930578;29;20405;-81
2021/09/18 15:10:20;;;;;;;85.10;23.00;;;;;;;16.91;94.29;94603.50;4928981;29;20024;-84
2021/09/18 15:12:46;;;;;;;20.98;18.45;;;;;;;16.87;93.95;94597.91;4931602;28;20082;-85
2021/09/18 15:15:11;;;;;;;19.95;18.42;;;;;;;16.89;92.68;94603.69;4928263;29;20024;-85
2021/09/18 15:17:37;;;;;;;20.48;18.88;;;;;;;16.89;92.61;94601.09;4929818;29;20088;-87
2021/09/18 15:20:04;;;;;;;51.75;20.13;;;;;;;16.90;93.18;94600.06;4929321;29;20040;-86
2021/09/18 15:22:29;;;;;;;20.00;18.35;;;;;;;16.86;92.54;94610.16;4929404;29;20425;-82
2021/09/18 15:24:54;;;;;;;19.27;17.65;;;;;;;16.81;91.89;94606.63;4935917;29;20027;-88
2021/09/18 15:27:20;;;;;;;90.72;21.83;;;;;;;16.76;92.26;94598.63;4946538;29;20038;-90
2021/09/18 15:29:45;;;;;;;18.85;17.35;;;;;;;16.77;91.31;94603.63;4949207;29;20171;-85
2021/09/18 15:32:11;;;;;;;58.30;19.80;;;;;;;16.78;91.19;94607.06;4947142;29;20019;-85
2021/09/18 15:34:36;;;;;;;34.85;19.05;;;;;;;16.67;91.11;94599.91;4948954;29;20027;-87
2021/09/18 15:37:02;;;;;;;18.33;16.92;;;;;;;16.61;91.34;94596.34;4946564;29;20023;-88
2021/09/18 15:39:27;;;;;;;50.80;18.75;;;;;;;16.59;92.58;94603.63;4949385;29;20027;-86
2021/09/18 15:41:53;;;;;;;18.48;16.85;;;;;;;16.51;91.81;94600.44;4948248;29;20386;-88
2021/09/18 15:44:20;;;;;;;18.90;17.45;;;;;;;16.56;91.61;94608.50;4948491;29;20023;-90
2021/09/18 15:46:46;;;;;;;41.25;18.25;;;;;;;16.56;92.29;94617.13;4940775;29;20134;-84
2021/09/18 15:49:11;;;;;;;19.25;17.65;;;;;;;16.55;92.32;94617.34;4927976;29;20035;-88
2021/09/18 15:51:37;;;;;;;22.35;17.98;;;;;;;16.54;91.58;94620.94;4912253;29;20031;-83
2021/09/18 15:54:02;;;;;;;17.80;16.40;;;;;;;16.63;91.82;94617.84;4927900;29;20032;-85
2021/09/18 15:56:28;;;;;;;20.20;16.95;;;;;;;16.62;90.89;94620.69;4929029;29;20545;-86
2021/09/18 15:58:53;;;;;;;186.50;34.03;;;;;;;16.58;90.88;94612.47;4928896;29;20102;-90
2021/09/18 16:01:19;;;;;;;38.67;24.73;;;;;;;16.43;91.06;94608.56;4932425;29;20036;-88
2021/09/18 16:03:44;;;;;;;114.65;24.70;;;;;;;16.42;90.68;94615.63;4932883;29;20510;-87
2021/09/18 16:06:09;;;;;;;31.92;28.58;;;;;;;16.30;91.05;94620.75;4932116;29;20035;-87
2021/09/18 16:08:35;;;;;;;29.05;26.35;;;;;;;16.22;91.88;94621.00;4933290;29;20028;-88
2021/09/18 16:11:01;;;;;;;41.30;20.15;;;;;;;16.21;92.82;94631.69;4931573;29;20573;-85
2021/09/18 16:13:26;;;;;;;18.98;17.50;;;;;;;16.16;93.19;94634.94;4933265;29;20039;-84
2021/09/18 16:15:52;;;;;;;35.80;19.35;;;;;;;16.11;93.23;94631.34;4935428;29;20027;-89
2021/09/18 16:18:17;;;;;;;19.70;18.10;;;;;;;16.13;93.22;94635.34;4952022;29;20028;-85
2021/09/18 16:20:44;;;;;;;22.73;20.67;;;;;;;16.10;93.99;94642.81;4951280;29;20039;-87
2021/09/18 16:23:10;;;;;;;21.58;19.73;;;;;;;16.02;94.59;94648.31;4950837;29;20042;-89
2021/09/18 16:25:36;;;;;;;19.38;17.25;;;;;;;16.08;94.67;94647.47;4937284;29;20505;-88